BERRYESSA (BER)

Elevation: 456' · PUTAH CR basin · Operator: US Bureau of Reclamation

Provisional data, subject to change.
Query executed Sunday at 2:53:31   clock

Select a sensor type for a plot of data.
Note: Reservoir Flows are daily averages.

Earlier

Date RES ELE    STORAGE    OUTFLOW    INFLOW    PPT INC   
 FEET   AF   CFS   CFS   INCHES  
05/28/2016 409.08 1015043 481 19 0.00
05/29/2016 409.03 1014256 437 157 0.00
05/30/2016 408.97 1013311 434 86 0.00
05/31/2016 408.90 1012209 496 79 0.00
06/01/2016 408.82 1010950 589 88 0.00
06/02/2016 408.74 1009692 625 125 0.00
06/03/2016 408.66 1008434 614 98 0.00
06/04/2016 408.57 1007020 599 25 0.00
06/05/2016 408.50 1005921 621 134 0.00
06/06/2016 408.40 1004352 621 -31 0.00
06/07/2016 408.33 1003254 609 199 0.00
06/08/2016 408.21 1001373 591 -239 0.00
06/09/2016 408.13 1000120 558 29 0.00
06/10/2016 408.05 998867 515 -9 0.00
06/11/2016 407.96 997459 494 -113 0.00
06/12/2016 407.90 996521 475 94 0.00
06/13/2016 407.83 995426 527 103 0.00
06/14/2016 407.71 993551 597 -225 0.00
06/15/2016 407.61 991990 610 -70 0.00
06/16/2016 407.53 990742 616 69 0.00
06/17/2016 407.49 990118 593 324 0.00
06/18/2016 407.36 988091 558 -413 0.00
06/19/2016 407.29 987000 531 93 0.00
06/20/2016 -- -- -- -- --
06/21/2016 -- -- -- -- --
06/22/2016 -- -- -- -- --
06/23/2016 -- -- -- -- --
06/24/2016 -- -- -- -- --
06/25/2016 -- -- -- -- --
06/26/2016 -- -- -- -- --

Later | Latest

Warning! This data is preliminary and subject to revision.

Show BER Map | Plot BER Data | 1 Month BER Data | Real-Time BER Data | BER Info